sensor_id;sensor_type;location;lat;lon;timestamp;P1;durP1;ratioP1;P2;durP2;ratioP2
15287;SDS011;7745;48.708;9.026;2022-10-31T00:01:19;8.07;;;3.87;;
15287;SDS011;7745;48.708;9.026;2022-10-31T00:03:49;9.47;;;4.00;;
15287;SDS011;7745;48.708;9.026;2022-10-31T00:06:16;9.37;;;4.07;;
15287;SDS011;7745;48.708;9.026;2022-10-31T00:08:45;8.07;;;4.13;;
15287;SDS011;7745;48.708;9.026;2022-10-31T00:11:11;12.57;;;4.33;;
15287;SDS011;7745;48.708;9.026;2022-10-31T00:13:38;8.33;;;4.10;;
15287;SDS011;7745;48.708;9.026;2022-10-31T00:16:12;7.30;;;4.00;;
15287;SDS011;7745;48.708;9.026;2022-10-31T00:18:39;8.70;;;4.23;;
15287;SDS011;7745;48.708;9.026;2022-10-31T00:21:06;9.30;;;4.20;;
15287;SDS011;7745;48.708;9.026;2022-10-31T00:23:33;10.53;;;4.20;;
15287;SDS011;7745;48.708;9.026;2022-10-31T00:26:01;11.60;;;4.20;;
15287;SDS011;7745;48.708;9.026;2022-10-31T00:28:29;8.47;;;3.90;;
15287;SDS011;7745;48.708;9.026;2022-10-31T00:30:58;5.30;;;3.50;;
15287;SDS011;7745;48.708;9.026;2022-10-31T00:33:26;12.20;;;4.07;;
15287;SDS011;7745;48.708;9.026;2022-10-31T00:35:52;10.80;;;4.37;;
15287;SDS011;7745;48.708;9.026;2022-10-31T00:38:19;8.03;;;4.03;;
15287;SDS011;7745;48.708;9.026;2022-10-31T00:40:46;16.53;;;4.57;;
15287;SDS011;7745;48.708;9.026;2022-10-31T00:43:14;11.43;;;4.43;;
15287;SDS011;7745;48.708;9.026;2022-10-31T00:45:41;10.00;;;4.03;;
15287;SDS011;7745;48.708;9.026;2022-10-31T00:48:08;12.33;;;4.50;;
15287;SDS011;7745;48.708;9.026;2022-10-31T00:50:35;10.00;;;4.50;;
15287;SDS011;7745;48.708;9.026;2022-10-31T00:53:02;9.10;;;3.97;;
15287;SDS011;7745;48.708;9.026;2022-10-31T00:55:30;7.13;;;3.80;;
15287;SDS011;7745;48.708;9.026;2022-10-31T00:57:56;11.70;;;4.27;;
15287;SDS011;7745;48.708;9.026;2022-10-31T01:00:25;8.03;;;3.93;;
15287;SDS011;7745;48.708;9.026;2022-10-31T01:02:52;10.40;;;4.73;;
15287;SDS011;7745;48.708;9.026;2022-10-31T01:05:18;9.07;;;4.43;;
15287;SDS011;7745;48.708;9.026;2022-10-31T01:07:45;7.63;;;4.33;;
15287;SDS011;7745;48.708;9.026;2022-10-31T01:10:12;10.27;;;4.60;;
15287;SDS011;7745;48.708;9.026;2022-10-31T01:12:40;6.97;;;4.03;;
15287;SDS011;7745;48.708;9.026;2022-10-31T01:15:08;9.17;;;4.10;;
15287;SDS011;7745;48.708;9.026;2022-10-31T01:17:37;6.63;;;4.20;;
15287;SDS011;7745;48.708;9.026;2022-10-31T01:20:05;7.20;;;3.80;;
15287;SDS011;7745;48.708;9.026;2022-10-31T01:22:33;8.17;;;4.40;;
15287;SDS011;7745;48.708;9.026;2022-10-31T01:25:00;8.30;;;4.13;;
15287;SDS011;7745;48.708;9.026;2022-10-31T01:27:27;8.40;;;4.33;;
15287;SDS011;7745;48.708;9.026;2022-10-31T01:29:54;9.47;;;4.00;;
15287;SDS011;7745;48.708;9.026;2022-10-31T01:32:20;8.70;;;4.27;;
15287;SDS011;7745;48.708;9.026;2022-10-31T01:34:49;7.60;;;4.50;;
15287;SDS011;7745;48.708;9.026;2022-10-31T01:37:16;9.07;;;4.10;;
15287;SDS011;7745;48.708;9.026;2022-10-31T01:39:42;7.23;;;3.80;;
15287;SDS011;7745;48.708;9.026;2022-10-31T01:42:09;8.80;;;4.30;;
15287;SDS011;7745;48.708;9.026;2022-10-31T01:44:48;11.70;;;4.20;;
15287;SDS011;7745;48.708;9.026;2022-10-31T01:47:19;6.90;;;3.53;;
15287;SDS011;7745;48.708;9.026;2022-10-31T01:49:51;11.27;;;4.07;;
15287;SDS011;7745;48.708;9.026;2022-10-31T01:52:21;8.93;;;4.00;;
15287;SDS011;7745;48.708;9.026;2022-10-31T01:54:50;7.83;;;4.37;;
15287;SDS011;7745;48.708;9.026;2022-10-31T01:57:22;8.70;;;4.00;;
15287;SDS011;7745;48.708;9.026;2022-10-31T01:59:50;6.67;;;3.70;;
15287;SDS011;7745;48.708;9.026;2022-10-31T02:02:21;8.60;;;3.90;;
15287;SDS011;7745;48.708;9.026;2022-10-31T02:04:48;10.03;;;4.10;;
15287;SDS011;7745;48.708;9.026;2022-10-31T02:07:17;8.13;;;3.70;;
15287;SDS011;7745;48.708;9.026;2022-10-31T02:09:47;11.27;;;4.17;;
15287;SDS011;7745;48.708;9.026;2022-10-31T02:12:15;7.37;;;3.83;;
15287;SDS011;7745;48.708;9.026;2022-10-31T02:14:43;8.27;;;4.47;;
15287;SDS011;7745;48.708;9.026;2022-10-31T02:17:10;7.57;;;3.57;;
15287;SDS011;7745;48.708;9.026;2022-10-31T02:19:38;7.87;;;3.63;;
15287;SDS011;7745;48.708;9.026;2022-10-31T02:22:16;8.43;;;3.97;;
15287;SDS011;7745;48.708;9.026;2022-10-31T02:24:52;7.13;;;3.80;;
15287;SDS011;7745;48.708;9.026;2022-10-31T02:27:36;8.57;;;4.20;;
15287;SDS011;7745;48.708;9.026;2022-10-31T02:30:14;7.33;;;4.07;;
15287;SDS011;7745;48.708;9.026;2022-10-31T02:32:49;9.67;;;4.30;;
15287;SDS011;7745;48.708;9.026;2022-10-31T02:35:37;8.20;;;3.77;;
15287;SDS011;7745;48.708;9.026;2022-10-31T02:38:12;11.50;;;3.97;;
15287;SDS011;7745;48.708;9.026;2022-10-31T02:40:48;6.67;;;4.17;;
15287;SDS011;7745;48.708;9.026;2022-10-31T02:43:20;10.73;;;4.30;;
15287;SDS011;7745;48.708;9.026;2022-10-31T02:45:53;9.27;;;4.47;;
15287;SDS011;7745;48.708;9.026;2022-10-31T02:48:27;12.83;;;4.20;;
15287;SDS011;7745;48.708;9.026;2022-10-31T02:50:55;10.47;;;3.43;;
15287;SDS011;7745;48.708;9.026;2022-10-31T02:53:25;9.53;;;3.93;;
15287;SDS011;7745;48.708;9.026;2022-10-31T02:55:56;8.63;;;4.10;;
15287;SDS011;7745;48.708;9.026;2022-10-31T02:58:26;6.47;;;3.97;;
15287;SDS011;7745;48.708;9.026;2022-10-31T03:01:07;6.57;;;4.10;;
15287;SDS011;7745;48.708;9.026;2022-10-31T03:06:44;6.50;;;3.97;;
15287;SDS011;7745;48.708;9.026;2022-10-31T03:09:17;13.53;;;3.90;;
15287;SDS011;7745;48.708;9.026;2022-10-31T03:11:52;6.57;;;3.77;;
15287;SDS011;7745;48.708;9.026;2022-10-31T03:14:24;12.30;;;4.03;;
15287;SDS011;7745;48.708;9.026;2022-10-31T03:16:57;10.13;;;4.60;;
15287;SDS011;7745;48.708;9.026;2022-10-31T03:19:30;7.70;;;3.67;;
15287;SDS011;7745;48.708;9.026;2022-10-31T03:22:02;8.07;;;3.93;;
15287;SDS011;7745;48.708;9.026;2022-10-31T03:24:34;11.77;;;4.00;;
15287;SDS011;7745;48.708;9.026;2022-10-31T03:27:04;9.90;;;4.03;;
15287;SDS011;7745;48.708;9.026;2022-10-31T03:29:35;7.73;;;2.97;;
15287;SDS011;7745;48.708;9.026;2022-10-31T03:32:05;7.00;;;4.10;;
15287;SDS011;7745;48.708;9.026;2022-10-31T03:34:35;6.27;;;3.77;;
15287;SDS011;7745;48.708;9.026;2022-10-31T03:37:04;12.10;;;4.10;;
15287;SDS011;7745;48.708;9.026;2022-10-31T03:39:34;9.80;;;4.03;;
15287;SDS011;7745;48.708;9.026;2022-10-31T03:42:04;10.13;;;3.80;;
15287;SDS011;7745;48.708;9.026;2022-10-31T03:44:35;6.77;;;3.80;;
15287;SDS011;7745;48.708;9.026;2022-10-31T03:47:04;9.60;;;4.00;;
15287;SDS011;7745;48.708;9.026;2022-10-31T03:49:31;8.53;;;4.20;;
15287;SDS011;7745;48.708;9.026;2022-10-31T03:52:02;6.80;;;4.10;;
15287;SDS011;7745;48.708;9.026;2022-10-31T03:54:36;7.97;;;3.77;;
15287;SDS011;7745;48.708;9.026;2022-10-31T03:57:06;6.20;;;3.77;;
15287;SDS011;7745;48.708;9.026;2022-10-31T03:59:41;7.60;;;3.90;;
15287;SDS011;7745;48.708;9.026;2022-10-31T04:02:11;10.40;;;4.30;;
15287;SDS011;7745;48.708;9.026;2022-10-31T04:04:41;10.90;;;4.00;;
15287;SDS011;7745;48.708;9.026;2022-10-31T04:07:11;8.13;;;4.17;;
15287;SDS011;7745;48.708;9.026;2022-10-31T04:09:40;7.63;;;4.27;;
15287;SDS011;7745;48.708;9.026;2022-10-31T04:12:11;8.63;;;3.77;;
15287;SDS011;7745;48.708;9.026;2022-10-31T04:14:41;8.27;;;3.53;;
15287;SDS011;7745;48.708;9.026;2022-10-31T04:17:12;7.33;;;3.60;;
15287;SDS011;7745;48.708;9.026;2022-10-31T04:19:40;8.83;;;3.73;;
15287;SDS011;7745;48.708;9.026;2022-10-31T04:22:07;10.87;;;4.00;;
15287;SDS011;7745;48.708;9.026;2022-10-31T04:24:35;6.43;;;3.70;;
15287;SDS011;7745;48.708;9.026;2022-10-31T04:27:04;8.43;;;4.17;;
15287;SDS011;7745;48.708;9.026;2022-10-31T04:29:31;7.97;;;3.77;;
15287;SDS011;7745;48.708;9.026;2022-10-31T04:31:59;7.73;;;3.57;;
15287;SDS011;7745;48.708;9.026;2022-10-31T04:34:26;8.23;;;3.77;;
15287;SDS011;7745;48.708;9.026;2022-10-31T04:36:52;8.03;;;3.93;;
15287;SDS011;7745;48.708;9.026;2022-10-31T04:39:19;9.97;;;4.30;;
15287;SDS011;7745;48.708;9.026;2022-10-31T04:41:47;7.53;;;4.30;;
15287;SDS011;7745;48.708;9.026;2022-10-31T04:44:14;7.23;;;4.47;;
15287;SDS011;7745;48.708;9.026;2022-10-31T04:46:41;7.80;;;3.70;;
15287;SDS011;7745;48.708;9.026;2022-10-31T04:49:08;8.80;;;3.80;;
15287;SDS011;7745;48.708;9.026;2022-10-31T04:51:35;7.53;;;4.00;;
15287;SDS011;7745;48.708;9.026;2022-10-31T04:54:01;11.13;;;4.33;;
15287;SDS011;7745;48.708;9.026;2022-10-31T04:56:28;5.67;;;4.00;;
15287;SDS011;7745;48.708;9.026;2022-10-31T04:58:57;9.83;;;4.97;;
15287;SDS011;7745;48.708;9.026;2022-10-31T05:01:23;6.97;;;4.03;;
15287;SDS011;7745;48.708;9.026;2022-10-31T05:03:50;11.70;;;4.13;;
15287;SDS011;7745;48.708;9.026;2022-10-31T05:06:17;7.17;;;3.90;;
15287;SDS011;7745;48.708;9.026;2022-10-31T05:08:44;7.30;;;3.90;;
15287;SDS011;7745;48.708;9.026;2022-10-31T05:11:11;8.83;;;3.90;;
15287;SDS011;7745;48.708;9.026;2022-10-31T05:13:38;8.47;;;4.73;;
15287;SDS011;7745;48.708;9.026;2022-10-31T05:16:06;7.63;;;4.43;;
15287;SDS011;7745;48.708;9.026;2022-10-31T05:18:33;11.07;;;4.57;;
15287;SDS011;7745;48.708;9.026;2022-10-31T05:21:00;7.43;;;4.20;;
15287;SDS011;7745;48.708;9.026;2022-10-31T05:23:27;7.83;;;4.10;;
15287;SDS011;7745;48.708;9.026;2022-10-31T05:25:53;9.53;;;4.07;;
15287;SDS011;7745;48.708;9.026;2022-10-31T05:28:20;8.37;;;3.97;;
15287;SDS011;7745;48.708;9.026;2022-10-31T05:30:47;7.73;;;3.83;;
15287;SDS011;7745;48.708;9.026;2022-10-31T05:33:15;7.50;;;4.43;;
15287;SDS011;7745;48.708;9.026;2022-10-31T05:35:42;6.90;;;3.73;;
15287;SDS011;7745;48.708;9.026;2022-10-31T05:38:09;8.83;;;4.57;;
15287;SDS011;7745;48.708;9.026;2022-10-31T05:40:35;8.10;;;4.40;;
15287;SDS011;7745;48.708;9.026;2022-10-31T05:43:02;5.47;;;3.97;;
15287;SDS011;7745;48.708;9.026;2022-10-31T05:45:29;6.97;;;4.17;;
15287;SDS011;7745;48.708;9.026;2022-10-31T05:47:56;6.20;;;4.00;;
15287;SDS011;7745;48.708;9.026;2022-10-31T05:50:26;10.00;;;4.20;;
15287;SDS011;7745;48.708;9.026;2022-10-31T05:52:55;8.20;;;4.13;;
15287;SDS011;7745;48.708;9.026;2022-10-31T05:55:23;8.03;;;4.50;;
15287;SDS011;7745;48.708;9.026;2022-10-31T05:57:50;8.03;;;4.60;;
15287;SDS011;7745;48.708;9.026;2022-10-31T06:00:18;9.60;;;4.70;;
15287;SDS011;7745;48.708;9.026;2022-10-31T06:02:45;7.50;;;4.63;;
15287;SDS011;7745;48.708;9.026;2022-10-31T06:05:12;8.30;;;4.97;;
15287;SDS011;7745;48.708;9.026;2022-10-31T06:07:40;13.27;;;4.80;;
15287;SDS011;7745;48.708;9.026;2022-10-31T06:10:07;11.37;;;4.50;;
15287;SDS011;7745;48.708;9.026;2022-10-31T06:12:35;5.17;;;4.13;;
15287;SDS011;7745;48.708;9.026;2022-10-31T06:15:03;7.83;;;4.53;;
15287;SDS011;7745;48.708;9.026;2022-10-31T06:17:31;6.40;;;4.27;;
15287;SDS011;7745;48.708;9.026;2022-10-31T06:19:58;10.43;;;4.67;;
15287;SDS011;7745;48.708;9.026;2022-10-31T06:22:25;12.57;;;4.73;;
15287;SDS011;7745;48.708;9.026;2022-10-31T06:24:53;7.20;;;4.60;;
15287;SDS011;7745;48.708;9.026;2022-10-31T06:27:20;10.40;;;4.70;;
15287;SDS011;7745;48.708;9.026;2022-10-31T06:29:47;10.00;;;5.00;;
15287;SDS011;7745;48.708;9.026;2022-10-31T06:32:14;8.27;;;4.50;;
15287;SDS011;7745;48.708;9.026;2022-10-31T06:34:41;9.07;;;4.30;;
15287;SDS011;7745;48.708;9.026;2022-10-31T06:37:09;9.43;;;4.40;;
15287;SDS011;7745;48.708;9.026;2022-10-31T06:39:37;11.20;;;4.33;;
15287;SDS011;7745;48.708;9.026;2022-10-31T06:42:05;8.97;;;4.40;;
15287;SDS011;7745;48.708;9.026;2022-10-31T06:44:32;10.07;;;4.97;;
15287;SDS011;7745;48.708;9.026;2022-10-31T06:46:59;8.30;;;4.80;;
15287;SDS011;7745;48.708;9.026;2022-10-31T06:49:26;10.07;;;5.03;;
15287;SDS011;7745;48.708;9.026;2022-10-31T06:51:53;9.00;;;5.13;;
15287;SDS011;7745;48.708;9.026;2022-10-31T06:54:20;9.60;;;5.30;;
15287;SDS011;7745;48.708;9.026;2022-10-31T06:56:47;6.97;;;4.63;;
15287;SDS011;7745;48.708;9.026;2022-10-31T06:59:16;8.23;;;4.73;;
15287;SDS011;7745;48.708;9.026;2022-10-31T07:01:43;9.00;;;5.07;;
15287;SDS011;7745;48.708;9.026;2022-10-31T07:04:10;11.00;;;5.23;;
15287;SDS011;7745;48.708;9.026;2022-10-31T07:06:37;7.60;;;4.93;;
15287;SDS011;7745;48.708;9.026;2022-10-31T07:09:03;10.20;;;5.43;;
15287;SDS011;7745;48.708;9.026;2022-10-31T07:11:30;11.33;;;5.17;;
15287;SDS011;7745;48.708;9.026;2022-10-31T07:13:57;8.77;;;4.90;;
15287;SDS011;7745;48.708;9.026;2022-10-31T07:16:25;12.27;;;5.40;;
15287;SDS011;7745;48.708;9.026;2022-10-31T07:18:52;8.77;;;5.13;;
15287;SDS011;7745;48.708;9.026;2022-10-31T07:21:19;8.73;;;5.10;;
15287;SDS011;7745;48.708;9.026;2022-10-31T07:23:47;15.33;;;5.50;;
15287;SDS011;7745;48.708;9.026;2022-10-31T07:26:14;10.00;;;5.00;;
15287;SDS011;7745;48.708;9.026;2022-10-31T07:28:40;12.43;;;5.40;;
15287;SDS011;7745;48.708;9.026;2022-10-31T07:31:07;9.87;;;5.60;;
15287;SDS011;7745;48.708;9.026;2022-10-31T07:33:35;12.20;;;5.63;;
15287;SDS011;7745;48.708;9.026;2022-10-31T07:36:03;10.00;;;5.47;;
15287;SDS011;7745;48.708;9.026;2022-10-31T07:38:30;11.30;;;5.27;;
15287;SDS011;7745;48.708;9.026;2022-10-31T07:40:56;10.77;;;5.53;;
15287;SDS011;7745;48.708;9.026;2022-10-31T07:43:23;10.47;;;5.13;;
15287;SDS011;7745;48.708;9.026;2022-10-31T07:45:50;9.87;;;5.17;;
15287;SDS011;7745;48.708;9.026;2022-10-31T07:48:18;12.70;;;5.30;;
15287;SDS011;7745;48.708;9.026;2022-10-31T07:50:46;10.33;;;5.10;;
15287;SDS011;7745;48.708;9.026;2022-10-31T07:53:14;11.90;;;5.50;;
15287;SDS011;7745;48.708;9.026;2022-10-31T07:55:41;9.27;;;5.50;;
15287;SDS011;7745;48.708;9.026;2022-10-31T07:58:09;13.80;;;6.70;;
15287;SDS011;7745;48.708;9.026;2022-10-31T08:00:37;10.67;;;6.30;;
15287;SDS011;7745;48.708;9.026;2022-10-31T08:03:06;8.87;;;6.27;;
15287;SDS011;7745;48.708;9.026;2022-10-31T08:05:34;15.93;;;6.80;;
15287;SDS011;7745;48.708;9.026;2022-10-31T08:08:02;12.03;;;6.47;;
15287;SDS011;7745;48.708;9.026;2022-10-31T08:10:30;9.90;;;6.40;;
15287;SDS011;7745;48.708;9.026;2022-10-31T08:12:57;14.10;;;5.80;;
15287;SDS011;7745;48.708;9.026;2022-10-31T08:15:25;9.60;;;5.93;;
15287;SDS011;7745;48.708;9.026;2022-10-31T08:17:52;12.77;;;5.77;;
15287;SDS011;7745;48.708;9.026;2022-10-31T08:20:19;12.27;;;6.33;;
15287;SDS011;7745;48.708;9.026;2022-10-31T08:22:53;10.27;;;5.90;;
15287;SDS011;7745;48.708;9.026;2022-10-31T08:25:22;11.93;;;5.47;;
15287;SDS011;7745;48.708;9.026;2022-10-31T08:27:50;12.03;;;6.37;;
15287;SDS011;7745;48.708;9.026;2022-10-31T08:30:17;11.73;;;6.00;;
15287;SDS011;7745;48.708;9.026;2022-10-31T08:32:44;14.73;;;6.33;;
15287;SDS011;7745;48.708;9.026;2022-10-31T08:35:11;9.30;;;5.67;;
15287;SDS011;7745;48.708;9.026;2022-10-31T08:37:38;12.03;;;6.30;;
15287;SDS011;7745;48.708;9.026;2022-10-31T08:40:06;10.23;;;5.90;;
15287;SDS011;7745;48.708;9.026;2022-10-31T08:42:34;12.13;;;6.27;;
15287;SDS011;7745;48.708;9.026;2022-10-31T08:45:01;14.47;;;6.33;;
15287;SDS011;7745;48.708;9.026;2022-10-31T08:47:28;14.43;;;6.60;;
15287;SDS011;7745;48.708;9.026;2022-10-31T08:49:55;11.60;;;5.93;;
15287;SDS011;7745;48.708;9.026;2022-10-31T08:52:22;10.70;;;5.67;;
15287;SDS011;7745;48.708;9.026;2022-10-31T08:54:50;12.77;;;6.20;;
15287;SDS011;7745;48.708;9.026;2022-10-31T08:57:17;9.83;;;5.90;;
15287;SDS011;7745;48.708;9.026;2022-10-31T08:59:45;13.27;;;5.97;;
15287;SDS011;7745;48.708;9.026;2022-10-31T09:02:12;11.67;;;6.17;;
15287;SDS011;7745;48.708;9.026;2022-10-31T09:04:38;12.40;;;5.80;;
15287;SDS011;7745;48.708;9.026;2022-10-31T09:07:05;11.83;;;6.00;;
15287;SDS011;7745;48.708;9.026;2022-10-31T09:09:32;9.77;;;5.83;;
15287;SDS011;7745;48.708;9.026;2022-10-31T09:11:59;11.17;;;5.97;;
15287;SDS011;7745;48.708;9.026;2022-10-31T09:14:26;10.67;;;5.80;;
15287;SDS011;7745;48.708;9.026;2022-10-31T09:16:54;12.00;;;5.50;;
15287;SDS011;7745;48.708;9.026;2022-10-31T09:19:21;12.80;;;5.63;;
15287;SDS011;7745;48.708;9.026;2022-10-31T09:21:51;12.73;;;6.07;;
15287;SDS011;7745;48.708;9.026;2022-10-31T09:24:18;8.80;;;5.93;;
15287;SDS011;7745;48.708;9.026;2022-10-31T09:26:45;11.47;;;6.20;;
15287;SDS011;7745;48.708;9.026;2022-10-31T09:29:11;13.43;;;5.70;;
15287;SDS011;7745;48.708;9.026;2022-10-31T09:31:38;13.07;;;6.57;;
15287;SDS011;7745;48.708;9.026;2022-10-31T09:34:06;8.93;;;5.97;;
15287;SDS011;7745;48.708;9.026;2022-10-31T09:36:33;9.67;;;6.17;;
15287;SDS011;7745;48.708;9.026;2022-10-31T09:39:00;11.60;;;5.73;;
15287;SDS011;7745;48.708;9.026;2022-10-31T09:41:28;11.77;;;6.57;;
15287;SDS011;7745;48.708;9.026;2022-10-31T09:44:07;9.80;;;6.00;;
15287;SDS011;7745;48.708;9.026;2022-10-31T09:46:44;10.60;;;5.93;;
15287;SDS011;7745;48.708;9.026;2022-10-31T09:49:28;10.27;;;5.87;;
15287;SDS011;7745;48.708;9.026;2022-10-31T09:52:08;12.47;;;6.40;;
15287;SDS011;7745;48.708;9.026;2022-10-31T09:54:40;9.57;;;6.23;;
15287;SDS011;7745;48.708;9.026;2022-10-31T09:57:12;13.37;;;6.47;;
15287;SDS011;7745;48.708;9.026;2022-10-31T09:59:41;11.43;;;5.80;;
15287;SDS011;7745;48.708;9.026;2022-10-31T10:02:12;14.47;;;6.30;;
15287;SDS011;7745;48.708;9.026;2022-10-31T10:04:46;11.70;;;6.53;;
15287;SDS011;7745;48.708;9.026;2022-10-31T10:07:19;11.90;;;6.10;;
15287;SDS011;7745;48.708;9.026;2022-10-31T10:09:50;11.50;;;6.40;;
15287;SDS011;7745;48.708;9.026;2022-10-31T10:12:19;12.47;;;6.13;;
15287;SDS011;7745;48.708;9.026;2022-10-31T10:14:59;8.80;;;5.70;;
15287;SDS011;7745;48.708;9.026;2022-10-31T10:17:41;12.97;;;5.57;;
15287;SDS011;7745;48.708;9.026;2022-10-31T10:20:18;11.57;;;5.87;;
15287;SDS011;7745;48.708;9.026;2022-10-31T10:22:57;14.07;;;6.10;;
15287;SDS011;7745;48.708;9.026;2022-10-31T10:25:49;11.33;;;5.70;;
15287;SDS011;7745;48.708;9.026;2022-10-31T10:28:22;13.33;;;5.30;;
15287;SDS011;7745;48.708;9.026;2022-10-31T10:30:53;11.50;;;5.60;;
15287;SDS011;7745;48.708;9.026;2022-10-31T10:33:27;9.40;;;5.53;;
15287;SDS011;7745;48.708;9.026;2022-10-31T10:35:59;13.60;;;5.60;;
15287;SDS011;7745;48.708;9.026;2022-10-31T10:38:30;14.53;;;6.10;;
15287;SDS011;7745;48.708;9.026;2022-10-31T10:41:03;9.67;;;5.97;;
15287;SDS011;7745;48.708;9.026;2022-10-31T10:43:36;14.90;;;6.00;;
15287;SDS011;7745;48.708;9.026;2022-10-31T10:46:17;13.73;;;6.00;;
15287;SDS011;7745;48.708;9.026;2022-10-31T10:49:11;14.50;;;5.47;;
15287;SDS011;7745;48.708;9.026;2022-10-31T10:51:44;16.40;;;5.67;;
15287;SDS011;7745;48.708;9.026;2022-10-31T10:54:17;13.13;;;5.70;;
15287;SDS011;7745;48.708;9.026;2022-10-31T10:57:11;11.23;;;5.13;;
15287;SDS011;7745;48.708;9.026;2022-10-31T10:59:58;11.83;;;4.67;;
15287;SDS011;7745;48.708;9.026;2022-10-31T11:02:31;11.43;;;5.70;;
15287;SDS011;7745;48.708;9.026;2022-10-31T11:04:59;10.10;;;4.80;;
15287;SDS011;7745;48.708;9.026;2022-10-31T11:07:38;13.10;;;4.93;;
15287;SDS011;7745;48.708;9.026;2022-10-31T11:10:06;10.20;;;4.30;;
15287;SDS011;7745;48.708;9.026;2022-10-31T11:12:40;7.87;;;4.80;;
15287;SDS011;7745;48.708;9.026;2022-10-31T11:15:15;10.07;;;4.27;;
15287;SDS011;7745;48.708;9.026;2022-10-31T11:17:47;9.63;;;4.10;;
15287;SDS011;7745;48.708;9.026;2022-10-31T11:20:24;7.53;;;3.70;;
15287;SDS011;7745;48.708;9.026;2022-10-31T11:25:51;9.77;;;3.83;;
15287;SDS011;7745;48.708;9.026;2022-10-31T11:28:21;7.17;;;3.47;;
15287;SDS011;7745;48.708;9.026;2022-10-31T11:30:49;16.17;;;3.97;;
15287;SDS011;7745;48.708;9.026;2022-10-31T11:33:19;8.07;;;3.30;;
15287;SDS011;7745;48.708;9.026;2022-10-31T11:35:50;8.57;;;4.17;;
15287;SDS011;7745;48.708;9.026;2022-10-31T11:38:20;9.80;;;3.80;;
15287;SDS011;7745;48.708;9.026;2022-10-31T11:40:51;8.17;;;3.50;;
15287;SDS011;7745;48.708;9.026;2022-10-31T11:43:20;6.73;;;3.20;;
15287;SDS011;7745;48.708;9.026;2022-10-31T11:45:48;10.20;;;3.60;;
15287;SDS011;7745;48.708;9.026;2022-10-31T11:48:16;7.10;;;3.40;;
15287;SDS011;7745;48.708;9.026;2022-10-31T11:50:47;9.77;;;3.57;;
15287;SDS011;7745;48.708;9.026;2022-10-31T11:53:17;9.47;;;3.40;;
15287;SDS011;7745;48.708;9.026;2022-10-31T11:55:59;7.93;;;3.50;;
15287;SDS011;7745;48.708;9.026;2022-10-31T11:58:29;8.97;;;3.50;;
15287;SDS011;7745;48.708;9.026;2022-10-31T12:00:56;10.20;;;4.33;;
15287;SDS011;7745;48.708;9.026;2022-10-31T12:03:42;9.50;;;3.93;;
15287;SDS011;7745;48.708;9.026;2022-10-31T12:06:18;9.63;;;4.30;;
15287;SDS011;7745;48.708;9.026;2022-10-31T12:08:49;8.47;;;4.10;;
15287;SDS011;7745;48.708;9.026;2022-10-31T12:11:27;10.10;;;4.23;;
15287;SDS011;7745;48.708;9.026;2022-10-31T12:14:07;11.87;;;4.40;;
15287;SDS011;7745;48.708;9.026;2022-10-31T12:16:42;10.80;;;4.33;;
15287;SDS011;7745;48.708;9.026;2022-10-31T12:19:19;11.00;;;4.23;;
15287;SDS011;7745;48.708;9.026;2022-10-31T12:21:57;10.63;;;4.77;;
15287;SDS011;7745;48.708;9.026;2022-10-31T12:24:41;11.57;;;4.70;;
15287;SDS011;7745;48.708;9.026;2022-10-31T12:27:21;8.43;;;4.10;;
15287;SDS011;7745;48.708;9.026;2022-10-31T12:30:01;8.20;;;4.20;;
15287;SDS011;7745;48.708;9.026;2022-10-31T12:32:39;9.70;;;4.40;;
15287;SDS011;7745;48.708;9.026;2022-10-31T12:35:25;6.70;;;3.87;;
15287;SDS011;7745;48.708;9.026;2022-10-31T12:38:04;11.07;;;4.50;;
15287;SDS011;7745;48.708;9.026;2022-10-31T12:40:47;9.93;;;4.10;;
15287;SDS011;7745;48.708;9.026;2022-10-31T12:43:45;11.13;;;4.53;;
15287;SDS011;7745;48.708;9.026;2022-10-31T12:46:17;11.00;;;3.70;;
15287;SDS011;7745;48.708;9.026;2022-10-31T12:49:02;9.97;;;3.90;;
15287;SDS011;7745;48.708;9.026;2022-10-31T12:51:55;14.20;;;4.07;;
15287;SDS011;7745;48.708;9.026;2022-10-31T12:54:35;9.27;;;3.77;;
15287;SDS011;7745;48.708;9.026;2022-10-31T12:57:13;12.67;;;3.77;;
15287;SDS011;7745;48.708;9.026;2022-10-31T12:59:47;9.27;;;3.87;;
15287;SDS011;7745;48.708;9.026;2022-10-31T13:02:18;9.80;;;4.47;;
15287;SDS011;7745;48.708;9.026;2022-10-31T13:04:50;9.20;;;3.83;;
15287;SDS011;7745;48.708;9.026;2022-10-31T13:07:22;9.60;;;3.97;;
15287;SDS011;7745;48.708;9.026;2022-10-31T13:09:54;12.40;;;4.50;;
15287;SDS011;7745;48.708;9.026;2022-10-31T13:12:26;11.33;;;4.13;;
15287;SDS011;7745;48.708;9.026;2022-10-31T13:14:57;9.27;;;4.10;;
15287;SDS011;7745;48.708;9.026;2022-10-31T13:17:28;10.17;;;5.43;;
15287;SDS011;7745;48.708;9.026;2022-10-31T13:20:03;10.63;;;5.23;;
15287;SDS011;7745;48.708;9.026;2022-10-31T13:22:39;9.90;;;5.40;;
15287;SDS011;7745;48.708;9.026;2022-10-31T13:25:11;14.40;;;5.77;;
15287;SDS011;7745;48.708;9.026;2022-10-31T13:27:44;13.37;;;5.30;;
15287;SDS011;7745;48.708;9.026;2022-10-31T13:30:17;11.30;;;5.30;;
15287;SDS011;7745;48.708;9.026;2022-10-31T13:32:47;10.00;;;5.47;;
15287;SDS011;7745;48.708;9.026;2022-10-31T13:35:19;12.43;;;5.90;;
15287;SDS011;7745;48.708;9.026;2022-10-31T13:37:52;11.47;;;6.33;;
15287;SDS011;7745;48.708;9.026;2022-10-31T13:40:32;12.80;;;6.03;;
15287;SDS011;7745;48.708;9.026;2022-10-31T13:43:05;10.90;;;6.07;;
15287;SDS011;7745;48.708;9.026;2022-10-31T13:45:48;8.80;;;5.67;;
15287;SDS011;7745;48.708;9.026;2022-10-31T13:48:32;12.50;;;6.00;;
15287;SDS011;7745;48.708;9.026;2022-10-31T13:51:02;10.47;;;5.23;;
15287;SDS011;7745;48.708;9.026;2022-10-31T13:53:35;16.40;;;6.23;;
15287;SDS011;7745;48.708;9.026;2022-10-31T13:56:05;15.13;;;5.80;;
15287;SDS011;7745;48.708;9.026;2022-10-31T13:58:42;11.90;;;6.37;;
15287;SDS011;7745;48.708;9.026;2022-10-31T14:01:25;10.07;;;5.73;;
15287;SDS011;7745;48.708;9.026;2022-10-31T14:03:58;9.20;;;6.20;;
15287;SDS011;7745;48.708;9.026;2022-10-31T14:06:35;13.97;;;5.97;;
15287;SDS011;7745;48.708;9.026;2022-10-31T14:09:05;9.70;;;5.87;;
15287;SDS011;7745;48.708;9.026;2022-10-31T14:11:41;10.63;;;6.07;;
15287;SDS011;7745;48.708;9.026;2022-10-31T14:14:12;9.63;;;5.80;;
15287;SDS011;7745;48.708;9.026;2022-10-31T14:16:42;15.03;;;6.07;;
15287;SDS011;7745;48.708;9.026;2022-10-31T14:19:13;10.77;;;5.73;;
15287;SDS011;7745;48.708;9.026;2022-10-31T14:21:43;12.33;;;6.63;;
15287;SDS011;7745;48.708;9.026;2022-10-31T14:24:14;11.77;;;6.07;;
15287;SDS011;7745;48.708;9.026;2022-10-31T14:26:56;14.97;;;5.63;;
15287;SDS011;7745;48.708;9.026;2022-10-31T14:29:25;13.33;;;5.53;;
15287;SDS011;7745;48.708;9.026;2022-10-31T14:31:55;10.80;;;5.23;;
15287;SDS011;7745;48.708;9.026;2022-10-31T14:34:27;10.27;;;5.70;;
15287;SDS011;7745;48.708;9.026;2022-10-31T14:40:25;12.97;;;5.50;;
15287;SDS011;7745;48.708;9.026;2022-10-31T14:43:04;12.23;;;5.70;;
15287;SDS011;7745;48.708;9.026;2022-10-31T14:46:00;13.10;;;5.87;;
15287;SDS011;7745;48.708;9.026;2022-10-31T14:51:24;9.97;;;5.73;;
15287;SDS011;7745;48.708;9.026;2022-10-31T14:53:56;11.83;;;4.87;;
15287;SDS011;7745;48.708;9.026;2022-10-31T14:56:26;11.17;;;4.90;;
15287;SDS011;7745;48.708;9.026;2022-10-31T14:58:55;8.00;;;4.50;;
15287;SDS011;7745;48.708;9.026;2022-10-31T15:01:25;10.70;;;5.33;;
15287;SDS011;7745;48.708;9.026;2022-10-31T15:03:57;9.00;;;4.27;;
15287;SDS011;7745;48.708;9.026;2022-10-31T15:06:26;8.00;;;4.50;;
15287;SDS011;7745;48.708;9.026;2022-10-31T15:09:01;12.67;;;4.13;;
15287;SDS011;7745;48.708;9.026;2022-10-31T15:11:28;12.60;;;5.00;;
15287;SDS011;7745;48.708;9.026;2022-10-31T15:14:05;12.43;;;4.50;;
15287;SDS011;7745;48.708;9.026;2022-10-31T15:16:48;11.77;;;5.10;;
15287;SDS011;7745;48.708;9.026;2022-10-31T15:19:20;12.10;;;4.20;;
15287;SDS011;7745;48.708;9.026;2022-10-31T15:21:49;9.47;;;5.30;;
15287;SDS011;7745;48.708;9.026;2022-10-31T15:24:18;13.40;;;5.23;;
15287;SDS011;7745;48.708;9.026;2022-10-31T15:26:47;9.43;;;4.70;;
15287;SDS011;7745;48.708;9.026;2022-10-31T15:29:16;12.97;;;4.63;;